createdAt,value
2019-06-10T00:01:21.254Z,74.11
2019-06-10T00:03:51.428Z,74.39
2019-06-10T00:06:20.986Z,75.29
2019-06-10T00:08:50.617Z,75.35
2019-06-10T00:11:21.304Z,75.36
2019-06-10T00:13:50.695Z,75.23
2019-06-10T00:16:20.870Z,75.08
2019-06-10T00:18:50.993Z,74.68
2019-06-10T00:21:21.690Z,74.95
2019-06-10T00:23:51.858Z,74.66
2019-06-10T00:26:21.642Z,74.63
2019-06-10T00:28:51.362Z,74.81
2019-06-10T00:31:20.730Z,74.55
2019-06-10T00:33:51.766Z,74.55
2019-06-10T00:36:21.536Z,74.43
2019-06-10T00:38:51.819Z,74.61
2019-06-10T00:41:21.963Z,74.36
2019-06-10T00:43:51.742Z,74.61
2019-06-10T00:46:21.209Z,74.68
2019-06-10T00:48:50.895Z,74.58
2019-06-10T00:51:20.989Z,74.59
2019-06-10T00:53:51.438Z,74.49
2019-06-10T00:56:21.640Z,74.37
2019-06-10T00:58:51.442Z,74.49
2019-06-10T01:01:22.000Z,74.30
2019-06-10T01:03:50.963Z,73.89
2019-06-10T01:06:21.397Z,73.91
2019-06-10T01:08:51.228Z,73.61
2019-06-10T01:11:26.466Z,73.67
2019-06-10T01:13:50.857Z,73.51
2019-06-10T01:16:21.489Z,73.65
2019-06-10T01:18:52.637Z,73.78
2019-06-10T01:21:41.434Z,73.88
2019-06-10T01:24:11.639Z,73.94
2019-06-10T01:26:41.163Z,74.03
2019-06-10T01:29:10.292Z,73.90
2019-06-10T01:31:41.842Z,73.79
2019-06-10T01:34:11.995Z,73.54
2019-06-10T01:36:40.569Z,73.40
2019-06-10T01:39:11.606Z,73.34
2019-06-10T01:41:40.971Z,73.01
2019-06-10T01:44:11.552Z,72.85
2019-06-10T01:46:41.049Z,72.69
2019-06-10T01:49:11.742Z,72.72
2019-06-10T01:51:41.222Z,72.72
2019-06-10T01:54:11.965Z,72.77
2019-06-10T01:56:40.851Z,72.61
2019-06-10T01:59:12.260Z,72.20
2019-06-10T02:01:54.985Z,72.25
2019-06-10T02:04:23.413Z,72.01
2019-06-10T02:06:51.835Z,72.08
2019-06-10T02:09:23.043Z,72.05
2019-06-10T02:11:51.380Z,71.98
2019-06-10T02:14:23.931Z,71.65
2019-06-10T02:16:50.676Z,72.10
2019-06-10T02:19:22.745Z,71.76
2019-06-10T02:21:51.058Z,71.90
2019-06-10T02:24:22.042Z,72.11
2019-06-10T02:26:51.627Z,71.55
2019-06-10T02:29:22.196Z,71.83
2019-06-10T02:31:52.124Z,72.21
2019-06-10T02:34:26.883Z,72.62
2019-06-10T02:36:53.645Z,72.76
2019-06-10T02:39:28.033Z,72.93
2019-06-10T02:41:53.690Z,73.43
2019-06-10T02:44:31.883Z,73.85
2019-06-10T02:46:54.495Z,73.54
2019-06-10T02:49:42.800Z,73.56
2019-06-10T02:52:22.653Z,74.02
2019-06-10T02:54:48.531Z,74.73
2019-06-10T02:57:18.776Z,74.30
2019-06-10T02:59:47.314Z,74.65
2019-06-10T03:02:15.739Z,74.77
2019-06-10T03:04:44.149Z,74.78
2019-06-10T03:07:13.717Z,74.62
2019-06-10T03:09:42.821Z,74.85
2019-06-10T03:12:12.226Z,74.76
2019-06-10T03:14:42.264Z,74.61
2019-06-10T03:17:15.656Z,74.98
2019-06-10T03:19:50.342Z,75.19
2019-06-10T03:22:14.317Z,75.50
2019-06-10T03:24:42.740Z,75.48
2019-06-10T03:27:12.660Z,75.61
2019-06-10T03:29:42.149Z,75.52
2019-06-10T03:32:14.489Z,75.58
2019-06-10T03:34:45.906Z,75.93
2019-06-10T03:37:12.803Z,75.87
2019-06-10T03:39:42.728Z,75.93
2019-06-10T03:42:12.614Z,76.17
2019-06-10T03:44:43.074Z,76.19
2019-06-10T03:47:12.175Z,76.61
2019-06-10T03:49:49.984Z,76.87
2019-06-10T03:52:12.969Z,76.94
2019-06-10T03:54:43.845Z,76.81
2019-06-10T03:57:12.292Z,76.88
2019-06-10T03:59:42.228Z,77.28
2019-06-10T04:02:12.744Z,76.99
2019-06-10T04:04:42.841Z,77.01
2019-06-10T04:07:14.127Z,77.09
2019-06-10T04:09:42.497Z,76.94
2019-06-10T04:12:32.587Z,76.21
2019-06-10T04:15:02.893Z,75.69
2019-06-10T04:17:33.156Z,75.60
2019-06-10T04:20:09.276Z,75.62
2019-06-10T04:22:32.948Z,75.63
2019-06-10T04:25:03.083Z,75.52
2019-06-10T04:27:32.862Z,75.75
2019-06-10T04:30:03.263Z,75.56
2019-06-10T04:32:32.250Z,75.28
2019-06-10T04:35:02.271Z,75.30
2019-06-10T04:37:32.546Z,75.01
2019-06-10T04:40:02.885Z,74.72
2019-06-10T04:42:32.958Z,75.37
2019-06-10T04:45:03.163Z,75.32
2019-06-10T04:47:33.250Z,74.68
2019-06-10T04:50:03.141Z,74.07
2019-06-10T04:52:32.880Z,74.08
2019-06-10T04:55:04.457Z,73.59
2019-06-10T04:57:33.015Z,73.62
2019-06-10T05:00:04.084Z,73.56
2019-06-10T05:02:33.043Z,73.61
2019-06-10T05:05:02.926Z,73.05
2019-06-10T05:07:36.505Z,72.47
2019-06-10T05:10:03.278Z,72.53
2019-06-10T05:12:32.785Z,71.42
2019-06-10T05:15:03.568Z,71.66
2019-06-10T05:17:34.083Z,71.26
2019-06-10T05:20:02.548Z,70.66
2019-06-10T05:22:32.819Z,70.24
2019-06-10T05:25:02.519Z,70.20
2019-06-10T05:27:32.984Z,70.05
2019-06-10T05:30:02.258Z,70.44
2019-06-10T05:32:33.273Z,70.41
2019-06-10T05:35:03.510Z,70.29
2019-06-10T05:37:33.667Z,70.56
2019-06-10T05:40:02.224Z,69.05
2019-06-10T05:42:34.036Z,69.12
2019-06-10T05:45:03.162Z,68.53
2019-06-10T05:47:35.630Z,68.34
2019-06-10T05:50:03.266Z,67.45
2019-06-10T05:52:33.817Z,67.09
2019-06-10T05:55:02.940Z,66.73
2019-06-10T05:57:33.500Z,66.48
2019-06-10T06:00:10.728Z,65.83
2019-06-10T06:02:33.973Z,65.16
2019-06-10T06:05:02.656Z,65.03
2019-06-10T06:07:33.885Z,64.55
2019-06-10T06:10:02.476Z,64.60
2019-06-10T06:12:33.899Z,64.37
2019-06-10T06:15:02.428Z,62.80
2019-06-10T06:17:32.770Z,62.16
2019-06-10T06:20:02.723Z,62.51
2019-06-10T06:22:33.776Z,61.39
2019-06-10T06:25:03.705Z,61.62
2019-06-10T06:27:33.824Z,61.48
2019-06-10T06:30:06.989Z,62.20
2019-06-10T06:32:33.687Z,62.29
2019-06-10T06:35:02.276Z,62.95
2019-06-10T06:37:34.699Z,63.41
2019-06-10T06:40:02.790Z,62.84
2019-06-10T06:42:33.528Z,63.57
2019-06-10T06:45:03.038Z,63.96
2019-06-10T06:47:34.029Z,64.35
2019-06-10T06:50:02.685Z,64.63
2019-06-10T06:53:07.623Z,64.63
2019-06-10T06:55:23.258Z,64.74
2019-06-10T06:57:52.861Z,64.96
2019-06-10T07:00:43.122Z,64.54
2019-06-10T07:02:55.886Z,64.62
2019-06-10T07:05:24.297Z,64.67
2019-06-10T07:07:52.801Z,64.58
2019-06-10T07:10:24.261Z,64.26
2019-06-10T07:12:52.849Z,63.98
2019-06-10T07:15:26.289Z,64.47
2019-06-10T07:17:55.057Z,64.24
2019-06-10T07:20:23.507Z,64.67
2019-06-10T07:22:53.287Z,64.63
2019-06-10T07:25:22.966Z,65.03
2019-06-10T07:27:52.685Z,65.45
2019-06-10T07:30:22.970Z,65.19
2019-06-10T07:32:52.826Z,64.58
2019-06-10T07:35:22.186Z,64.35
2019-06-10T07:37:52.357Z,63.74
2019-06-10T07:40:22.278Z,62.90
2019-06-10T07:42:52.904Z,62.89
2019-06-10T07:45:22.114Z,62.71
2019-06-10T07:47:52.312Z,63.02
2019-06-10T07:50:22.721Z,62.64
2019-06-10T07:52:52.922Z,62.57
2019-06-10T07:55:22.168Z,62.52
2019-06-10T07:57:52.924Z,62.77
2019-06-10T08:00:22.737Z,62.55
2019-06-10T08:02:52.989Z,62.26
2019-06-10T08:05:23.411Z,62.30
2019-06-10T08:07:51.406Z,61.81
2019-06-10T08:10:19.927Z,61.17
2019-06-10T08:12:48.489Z,61.35
2019-06-10T08:15:16.938Z,61.03
2019-06-10T08:17:45.761Z,60.62
2019-06-10T08:20:18.861Z,60.07
2019-06-10T08:22:52.515Z,58.38
2019-06-10T08:25:17.449Z,58.05
2019-06-10T08:27:47.808Z,57.43
2019-06-10T08:30:23.191Z,56.81
2019-06-10T08:32:46.839Z,54.77
2019-06-10T08:35:16.707Z,55.57
2019-06-10T08:37:46.294Z,54.02
2019-06-10T08:40:15.526Z,54.20
2019-06-10T08:42:46.812Z,51.96
2019-06-10T08:45:14.076Z,51.70
2019-06-10T08:47:45.694Z,53.35
2019-06-10T08:50:13.008Z,53.67
2019-06-10T08:52:56.037Z,53.76
2019-06-10T08:55:33.335Z,53.80
2019-06-10T08:58:02.803Z,53.70
2019-06-10T09:00:33.231Z,52.51
2019-06-10T09:03:04.002Z,51.48
2019-06-10T09:05:32.523Z,52.19
2019-06-10T09:08:02.836Z,52.49
2019-06-10T09:10:33.790Z,50.48
2019-06-10T09:13:22.381Z,50.04
2019-06-10T09:16:10.529Z,51.30
2019-06-10T09:18:23.226Z,50.58
2019-06-10T09:20:55.305Z,49.78
2019-06-10T09:23:23.153Z,49.90
2019-06-10T09:25:54.457Z,50.22
2019-06-10T09:28:23.480Z,49.86
2019-06-10T09:30:58.493Z,50.76
2019-06-10T09:33:23.057Z,50.41
2019-06-10T09:35:54.848Z,51.73
2019-06-10T09:38:22.307Z,52.56
2019-06-10T09:40:59.217Z,51.83
2019-06-10T09:43:22.690Z,51.99
2019-06-10T09:45:55.427Z,52.32
2019-06-10T09:48:22.966Z,53.35
2019-06-10T09:50:57.951Z,52.90
2019-06-10T09:53:33.526Z,51.96
2019-06-10T09:55:55.416Z,52.48
2019-06-10T09:58:23.195Z,51.95
2019-06-10T10:00:57.580Z,52.86
2019-06-10T10:03:23.931Z,52.02
2019-06-10T10:05:59.286Z,52.38
2019-06-10T10:08:23.758Z,52.51
2019-06-10T10:10:58.488Z,51.72
2019-06-10T10:13:22.679Z,52.62
2019-06-10T10:15:53.875Z,51.87
2019-06-10T10:18:23.392Z,50.74
2019-06-10T10:20:56.530Z,51.07
2019-06-10T10:23:22.663Z,50.38
2019-06-10T10:25:56.592Z,49.98
2019-06-10T10:28:23.058Z,51.15
2019-06-10T10:30:57.221Z,50.90
2019-06-10T10:33:26.849Z,50.28
2019-06-10T10:36:13.269Z,49.90
2019-06-10T10:38:42.693Z,50.29
2019-06-10T10:41:13.407Z,50.13
2019-06-10T10:43:43.610Z,50.16
2019-06-10T10:46:13.850Z,51.37
2019-06-10T10:48:42.890Z,51.90
2019-06-10T10:51:13.022Z,51.71
2019-06-10T10:53:48.261Z,51.45
2019-06-10T10:56:14.307Z,52.62
2019-06-10T10:58:45.332Z,52.54
2019-06-10T11:01:15.151Z,52.51
2019-06-10T11:03:46.119Z,53.02
2019-06-10T11:06:14.882Z,52.92
2019-06-10T11:08:45.295Z,52.40
2019-06-10T11:11:13.909Z,52.04
2019-06-10T11:13:43.237Z,52.70
2019-06-10T11:16:11.955Z,51.49
2019-06-10T11:18:42.311Z,51.76
2019-06-10T11:21:13.028Z,51.09
2019-06-10T11:23:43.628Z,51.16
2019-06-10T11:26:12.965Z,51.32
2019-06-10T11:28:42.865Z,51.00
2019-06-10T11:31:13.947Z,50.98
2019-06-10T11:33:43.531Z,51.27
2019-06-10T11:36:31.366Z,50.80
2019-06-10T11:38:59.816Z,51.48
2019-06-10T11:41:28.526Z,50.87
2019-06-10T11:43:59.241Z,50.47
2019-06-10T11:46:27.166Z,51.19
2019-06-10T11:48:57.625Z,50.66
2019-06-10T11:51:25.715Z,51.09
2019-06-10T11:53:57.144Z,50.90
2019-06-10T11:56:24.603Z,50.89
2019-06-10T11:58:59.173Z,50.82
2019-06-10T12:01:28.383Z,51.36
2019-06-10T12:03:58.824Z,51.55
2019-06-10T12:06:46.282Z,50.82
2019-06-10T12:09:14.712Z,50.20
2019-06-10T12:11:43.894Z,49.87
2019-06-10T12:14:12.961Z,49.88
2019-06-10T12:19:12.775Z,49.93
2019-06-10T12:21:43.466Z,50.45
2019-06-10T12:24:12.726Z,51.39
2019-06-10T12:26:43.452Z,51.90
2019-06-10T12:29:12.382Z,51.51
2019-06-10T12:31:42.756Z,51.69
2019-06-10T12:34:12.489Z,51.20
2019-06-10T12:36:41.237Z,51.03
2019-06-10T12:39:10.730Z,50.81
2019-06-10T12:41:42.672Z,49.60
2019-06-10T12:44:12.096Z,50.33
2019-06-10T12:46:40.097Z,50.23
2019-06-10T12:49:08.882Z,51.65
2019-06-10T12:51:37.401Z,52.25
2019-06-10T12:54:06.552Z,54.12
2019-06-10T12:56:35.147Z,56.30
2019-06-10T12:59:09.650Z,58.00
2019-06-10T13:01:33.736Z,57.18
2019-06-10T13:04:05.421Z,58.44
2019-06-10T13:06:33.006Z,63.07
2019-06-10T13:09:23.428Z,65.15
2019-06-10T13:11:53.252Z,66.57
2019-06-10T13:14:22.042Z,68.90
2019-06-10T13:16:52.657Z,70.44
2019-06-10T13:19:23.168Z,71.48
2019-06-10T13:21:52.931Z,68.88
2019-06-10T13:24:22.506Z,67.83
2019-06-10T13:26:52.348Z,66.41
2019-06-10T13:29:21.003Z,64.69
2019-06-10T13:31:49.404Z,63.84
2019-06-10T13:34:22.129Z,63.37
2019-06-10T13:36:52.856Z,63.10
2019-06-10T13:39:22.305Z,63.13
2019-06-10T13:41:52.713Z,63.11
2019-06-10T13:44:22.814Z,62.26
2019-06-10T13:47:12.619Z,62.04
2019-06-10T13:49:42.692Z,61.79
2019-06-10T13:52:32.026Z,61.71
2019-06-10T13:55:01.299Z,61.05
2019-06-10T13:57:32.104Z,61.26
2019-06-10T14:00:02.731Z,60.75
2019-06-10T14:02:32.316Z,60.96
2019-06-10T14:05:03.536Z,58.19
2019-06-10T14:07:32.455Z,56.70
2019-06-10T14:10:04.003Z,58.85
2019-06-10T14:12:32.387Z,57.85
2019-06-10T14:15:04.117Z,58.46
2019-06-10T14:17:32.876Z,58.93
2019-06-10T14:20:01.753Z,56.70
2019-06-10T14:22:32.746Z,58.03
2019-06-10T14:25:02.781Z,58.21
2019-06-10T14:27:30.603Z,56.47
2019-06-10T14:29:59.057Z,57.98
2019-06-10T14:32:27.507Z,57.06
2019-06-10T14:34:55.909Z,57.22
2019-06-10T14:37:35.703Z,56.63
2019-06-10T14:39:54.470Z,57.73
2019-06-10T14:42:23.203Z,58.42
2019-06-10T14:44:52.644Z,57.61
2019-06-10T14:47:27.260Z,56.56
2019-06-10T14:49:55.685Z,56.13
2019-06-10T14:52:24.092Z,57.34
2019-06-10T14:54:53.269Z,59.47
2019-06-10T14:57:22.860Z,60.78
2019-06-10T14:59:53.209Z,60.90
2019-06-10T15:02:21.645Z,61.79
2019-06-10T15:04:53.008Z,63.80
2019-06-10T15:07:23.595Z,65.83
2019-06-10T15:09:52.591Z,67.21
2019-06-10T15:12:22.819Z,68.47
2019-06-10T15:14:52.100Z,68.95
2019-06-10T15:17:20.712Z,70.46
2019-06-10T15:19:49.121Z,71.50
2019-06-10T15:22:17.558Z,72.60
2019-06-10T15:24:45.980Z,75.31
2019-06-10T15:27:23.697Z,78.13
2019-06-10T15:29:44.556Z,83.12
2019-06-10T15:32:20.629Z,89.50
2019-06-10T15:34:43.118Z,95.95
2019-06-10T15:37:15.128Z,101.07
2019-06-10T15:39:42.379Z,98.15
2019-06-10T15:42:11.478Z,93.22
2019-06-10T15:44:58.531Z,96.60
2019-06-10T15:47:26.733Z,96.77
2019-06-10T15:49:55.300Z,96.75
2019-06-10T15:52:25.124Z,97.17
2019-06-10T15:54:53.908Z,98.45
2019-06-10T15:57:34.858Z,99.04
2019-06-10T15:59:52.460Z,99.01
2019-06-10T16:02:24.983Z,99.34
2019-06-10T16:04:52.701Z,99.18
2019-06-10T16:07:25.288Z,98.89
2019-06-10T16:09:53.335Z,96.38
2019-06-10T16:12:26.591Z,98.79
2019-06-10T16:14:52.995Z,99.27
2019-06-10T16:17:21.668Z,98.55
2019-06-10T16:19:52.828Z,95.25
2019-06-10T16:22:22.271Z,98.10
2019-06-10T16:24:52.579Z,95.94
2019-06-10T16:27:23.024Z,95.82
2019-06-10T16:29:53.056Z,94.92
2019-06-10T16:32:23.618Z,97.15
2019-06-10T16:34:52.225Z,97.12
2019-06-10T16:37:23.425Z,94.77
2019-06-10T16:39:52.483Z,97.28
2019-06-10T16:42:25.418Z,96.30
2019-06-10T16:45:12.820Z,97.14
2019-06-10T16:47:43.084Z,97.80
2019-06-10T16:50:12.193Z,94.48
2019-06-10T16:52:43.130Z,96.38
2019-06-10T16:55:12.766Z,96.79
2019-06-10T16:57:41.057Z,96.25
2019-06-10T17:00:13.886Z,95.94
2019-06-10T17:02:42.532Z,96.25
2019-06-10T17:05:10.027Z,95.22
2019-06-10T17:07:38.700Z,96.18
2019-06-10T17:10:07.456Z,96.48
2019-06-10T17:12:35.879Z,96.92
2019-06-10T17:15:04.977Z,98.15
2019-06-10T17:17:52.736Z,98.90
2019-06-10T17:20:23.291Z,98.84
2019-06-10T17:22:52.442Z,98.68
2019-06-10T17:25:23.539Z,97.21
2019-06-10T17:27:52.700Z,96.50
2019-06-10T17:30:23.384Z,97.15
2019-06-10T17:32:53.312Z,97.60
2019-06-10T17:35:22.001Z,98.36
2019-06-10T17:37:52.315Z,98.27
2019-06-10T17:40:23.466Z,95.95
2019-06-10T17:42:53.267Z,96.85
2019-06-10T17:45:25.762Z,96.80
2019-06-10T17:47:52.500Z,97.55
2019-06-10T17:50:22.319Z,98.02
2019-06-10T17:52:53.400Z,97.15
2019-06-10T17:55:24.717Z,96.06
2019-06-10T17:57:51.712Z,96.12
2019-06-10T18:00:20.139Z,96.34
2019-06-10T18:02:48.562Z,97.08
2019-06-10T18:05:17.054Z,97.48
2019-06-10T18:07:45.482Z,97.16
2019-06-10T18:10:13.976Z,95.38
2019-06-10T18:12:42.441Z,95.45
2019-06-10T18:15:12.531Z,95.36
2019-06-10T18:17:42.579Z,96.38
2019-06-10T18:20:13.578Z,97.31
2019-06-10T18:22:41.608Z,97.11
2019-06-10T18:25:12.336Z,97.42
2019-06-10T18:27:40.664Z,97.76
2019-06-10T18:30:13.321Z,96.95
2019-06-10T18:32:39.307Z,96.70
2019-06-10T18:35:27.837Z,96.82
2019-06-10T18:37:56.369Z,96.05
2019-06-10T18:40:31.677Z,96.52
2019-06-10T18:42:59.967Z,95.14
2019-06-10T18:45:29.729Z,95.15
2019-06-10T18:47:58.276Z,96.02
2019-06-10T18:50:27.794Z,96.18
2019-06-10T18:52:58.680Z,96.08
2019-06-10T18:55:26.681Z,95.90
2019-06-10T18:57:55.341Z,96.39
2019-06-10T19:00:23.796Z,96.25
2019-06-10T19:03:08.770Z,96.07
2019-06-10T19:05:22.528Z,96.13
2019-06-10T19:07:52.919Z,95.86
2019-06-10T19:10:23.092Z,95.86
2019-06-10T19:12:53.134Z,97.08
2019-06-10T19:15:21.636Z,95.92
2019-06-10T19:17:50.076Z,95.70
2019-06-10T19:20:18.494Z,96.50
2019-06-10T19:22:47.497Z,95.80
2019-06-10T19:25:16.993Z,95.70
2019-06-10T19:27:45.406Z,95.58
2019-06-10T19:30:13.842Z,96.93
2019-06-10T19:32:44.232Z,97.21
2019-06-10T19:35:13.078Z,95.86
2019-06-10T19:37:42.366Z,96.24
2019-06-10T19:40:12.362Z,96.51
2019-06-10T19:42:43.383Z,96.40
2019-06-10T19:45:12.547Z,96.16
2019-06-10T19:47:45.284Z,95.90
2019-06-10T19:50:12.211Z,95.62
2019-06-10T19:52:43.660Z,94.64
2019-06-10T19:55:13.101Z,94.41
2019-06-10T19:57:41.527Z,94.70
2019-06-10T20:00:29.525Z,94.42
2019-06-10T20:02:58.210Z,94.99
2019-06-10T20:05:26.652Z,94.51
2019-06-10T20:07:55.089Z,94.79
2019-06-10T20:10:23.536Z,95.34
2019-06-10T20:12:53.710Z,95.21
2019-06-10T20:15:23.060Z,94.67
2019-06-10T20:17:52.566Z,94.58
2019-06-10T20:20:22.575Z,94.83
2019-06-10T20:22:53.308Z,94.87
2019-06-10T20:25:22.377Z,93.93
2019-06-10T20:27:52.418Z,94.14
2019-06-10T20:30:27.506Z,94.28
2019-06-10T20:32:52.804Z,94.07
2019-06-10T20:35:23.285Z,94.73
2019-06-10T20:37:53.842Z,93.93
2019-06-10T20:40:22.169Z,93.22
2019-06-10T20:42:50.610Z,93.75
2019-06-10T20:45:19.170Z,93.12
2019-06-10T20:47:47.994Z,93.87
2019-06-10T20:50:17.360Z,92.65
2019-06-10T20:52:47.202Z,93.35
2019-06-10T20:55:16.965Z,93.32
2019-06-10T20:57:54.918Z,93.38
2019-06-10T21:00:26.486Z,93.33
2019-06-10T21:02:55.001Z,93.20
2019-06-10T21:05:23.441Z,93.33
2019-06-10T21:07:51.912Z,93.73
2019-06-10T21:10:24.309Z,93.58
2019-06-10T21:12:52.737Z,93.56
2019-06-10T21:15:22.822Z,93.22
2019-06-10T21:17:51.469Z,93.58
2019-06-10T21:20:22.139Z,93.41
2019-06-10T21:22:51.432Z,91.62
2019-06-10T21:25:20.196Z,92.74
2019-06-10T21:27:49.714Z,93.12
2019-06-10T21:30:34.072Z,93.36
2019-06-10T21:32:50.854Z,93.02
2019-06-10T21:35:19.362Z,92.62
2019-06-10T21:37:48.352Z,92.95
2019-06-10T21:40:18.102Z,93.18
2019-06-10T21:42:46.512Z,91.61
2019-06-10T21:45:15.258Z,92.69
2019-06-10T21:47:44.475Z,92.79
2019-06-10T21:50:14.208Z,93.45
2019-06-10T21:52:44.628Z,93.21
2019-06-10T21:55:13.532Z,92.16
2019-06-10T21:57:42.995Z,92.51
2019-06-10T22:00:14.896Z,91.24
2019-06-10T22:02:45.135Z,92.34
2019-06-10T22:05:13.674Z,91.87
2019-06-10T22:08:03.184Z,92.38
2019-06-10T22:10:33.563Z,92.38
2019-06-10T22:13:03.217Z,91.66
2019-06-10T22:15:33.421Z,91.39
2019-06-10T22:18:02.314Z,90.25
2019-06-10T22:20:32.456Z,89.50
2019-06-10T22:23:02.627Z,89.46
2019-06-10T22:25:32.839Z,89.06
2019-06-10T22:28:02.764Z,89.15
2019-06-10T22:30:32.145Z,89.07
2019-06-10T22:33:03.148Z,88.88
2019-06-10T22:35:31.355Z,88.82
2019-06-10T22:37:59.769Z,88.97
2019-06-10T22:40:28.528Z,88.90
2019-06-10T22:42:56.948Z,89.07
2019-06-10T22:45:28.444Z,88.85
2019-06-10T22:47:56.951Z,88.88
2019-06-10T22:50:25.452Z,88.49
2019-06-10T22:52:57.043Z,89.04
2019-06-10T22:55:24.028Z,90.07
2019-06-10T22:57:57.318Z,89.47
2019-06-10T23:00:43.711Z,88.98
2019-06-10T23:03:13.045Z,88.68
2019-06-10T23:06:02.627Z,88.46
2019-06-10T23:08:33.267Z,88.55
2019-06-10T23:11:02.797Z,88.59
2019-06-10T23:13:31.481Z,88.26
2019-06-10T23:16:02.433Z,88.14
2019-06-10T23:18:31.996Z,88.41
2019-06-10T23:21:01.556Z,88.23
2019-06-10T23:23:32.466Z,88.43
2019-06-10T23:26:02.775Z,88.28
2019-06-10T23:28:32.729Z,88.39
2019-06-10T23:31:02.423Z,88.43
2019-06-10T23:33:32.385Z,88.57
2019-06-10T23:36:03.766Z,88.39
2019-06-10T23:38:32.900Z,88.64
2019-06-10T23:41:03.548Z,88.95
2019-06-10T23:43:33.001Z,88.99
2019-06-10T23:46:04.094Z,90.00
2019-06-10T23:48:32.970Z,90.45
2019-06-10T23:51:04.525Z,89.94
2019-06-10T23:53:32.862Z,90.07
2019-06-10T23:56:04.716Z,90.16
2019-06-10T23:58:32.887Z,90.39
